createdAt,value
2023-02-09T10:32:45.463Z,37.70
2023-02-09T10:35:27.963Z,37.50
2023-02-09T10:38:02.327Z,33.10
2023-02-09T10:40:39.461Z,33.10
2023-02-09T10:43:39.073Z,34.10
2023-02-09T10:46:48.555Z,33.40
2023-02-09T10:49:35.576Z,29.70
2023-02-09T10:52:10.636Z,30.90
2023-02-09T10:54:49.016Z,31.60
2023-02-09T10:57:37.574Z,34.60
2023-02-09T11:00:17.222Z,32.70
2023-02-09T11:02:48.772Z,34.90
2023-02-09T11:05:23.406Z,33.70
2023-02-09T11:08:16.846Z,38.00
2023-02-09T11:10:58.719Z,40.80
2023-02-09T11:13:27.603Z,39.30
2023-02-09T11:16:14.311Z,35.60
2023-02-09T11:18:49.683Z,32.60
2023-02-09T11:21:33.231Z,36.30
2023-02-09T11:24:12.482Z,35.10
2023-02-09T11:26:50.041Z,33.50
2023-02-09T11:38:14.235Z,36.30
2023-02-09T11:40:48.603Z,35.90
2023-02-09T11:43:41.665Z,35.60
2023-02-09T11:46:23.309Z,32.80
2023-02-09T11:49:00.771Z,34.80
2023-02-09T11:51:31.616Z,32.70
2023-02-09T11:54:09.238Z,32.10
2023-02-09T11:56:46.636Z,32.20
2023-02-09T11:59:37.335Z,29.50
2023-02-09T12:02:15.647Z,30.40
2023-02-09T12:05:17.269Z,31.40
2023-02-09T12:08:30.141Z,35.30
2023-02-09T12:11:23.894Z,27.20
2023-02-09T12:14:01.349Z,29.20
2023-02-09T12:16:43.051Z,27.50
2023-02-09T12:19:34.882Z,29.00
2023-02-09T12:22:34.907Z,28.00
2023-02-09T12:25:12.342Z,27.80
2023-02-09T12:27:43.275Z,24.70
2023-02-09T12:30:43.189Z,21.90
2023-02-09T12:33:24.249Z,22.60
2023-02-09T12:36:04.643Z,23.60
2023-02-09T12:39:03.852Z,20.90
2023-02-09T12:41:55.473Z,20.40
2023-02-09T12:44:23.941Z,18.60
2023-02-09T12:46:55.650Z,21.00
2023-02-09T12:49:30.961Z,22.20
2023-02-09T12:52:02.428Z,18.60
2023-02-09T12:54:57.082Z,19.20
2023-02-09T12:58:08.400Z,20.00
2023-02-09T13:00:42.903Z,21.20
2023-02-09T13:03:17.413Z,21.80
2023-02-09T13:05:48.144Z,19.10
2023-02-09T13:08:24.647Z,18.90
2023-02-09T13:11:25.479Z,20.50
2023-02-09T13:16:31.436Z,22.70
2023-02-09T13:19:18.710Z,19.10
2023-02-09T13:22:02.491Z,18.30
2023-02-09T13:24:53.355Z,17.90
2023-02-09T13:29:57.455Z,18.80
2023-02-09T13:32:50.656Z,21.10
2023-02-09T13:35:34.948Z,19.40
2023-02-09T13:38:17.074Z,20.10
2023-02-09T13:40:49.053Z,20.70
2023-02-09T13:43:29.885Z,20.50
2023-02-09T13:46:00.299Z,18.20
2023-02-09T13:51:05.177Z,16.00
2023-02-09T13:53:36.100Z,18.50
2023-02-09T13:56:12.392Z,16.80
2023-02-09T13:58:40.930Z,19.00
2023-02-09T14:01:26.587Z,18.00
2023-02-09T14:04:16.399Z,18.10
2023-02-09T14:06:52.433Z,17.60
2023-02-09T14:09:30.177Z,18.50
2023-02-09T14:12:06.838Z,16.20
2023-02-09T14:15:01.138Z,18.30
2023-02-09T14:17:38.844Z,19.10
2023-02-09T14:20:21.865Z,16.20
2023-02-09T14:23:02.441Z,17.50
2023-02-09T14:25:34.246Z,17.40
2023-02-09T14:28:03.957Z,16.50
2023-02-09T14:30:38.082Z,15.60
2023-02-09T14:33:08.317Z,17.60
2023-02-09T14:38:48.282Z,15.90
2023-02-09T14:41:26.246Z,15.30
2023-02-09T14:44:22.720Z,18.50
2023-02-09T14:46:56.154Z,17.10
2023-02-09T14:49:26.776Z,19.40
2023-02-09T14:52:07.040Z,19.00
2023-02-09T14:54:46.950Z,19.10
2023-02-09T14:59:51.615Z,21.80
2023-02-09T15:02:26.774Z,23.90
2023-02-09T15:05:00.831Z,22.10
2023-02-09T15:07:45.816Z,23.40
2023-02-09T15:10:29.549Z,23.60
2023-02-09T15:12:58.987Z,24.50
2023-02-09T15:15:28.004Z,28.30
2023-02-09T15:17:59.485Z,29.40
2023-02-09T15:20:31.568Z,26.60
2023-02-09T15:23:02.476Z,28.20
2023-02-09T15:25:31.455Z,26.90
2023-02-09T15:28:03.157Z,27.10
2023-02-09T15:30:36.093Z,26.80
2023-02-09T15:33:07.186Z,30.10
2023-02-09T15:35:42.910Z,25.90
2023-02-09T15:38:15.834Z,25.40
2023-02-09T15:41:15.313Z,25.20
2023-02-09T15:44:06.133Z,25.10
2023-02-09T15:46:53.305Z,25.90
2023-02-09T15:49:26.726Z,27.20
2023-02-09T15:51:55.008Z,26.20
2023-02-09T15:54:30.420Z,32.20
2023-02-09T15:57:04.281Z,32.90
2023-02-09T15:59:39.507Z,34.10
2023-02-09T16:02:13.993Z,29.80
2023-02-09T16:04:43.652Z,27.40
2023-02-09T16:07:25.096Z,31.30
2023-02-09T16:09:54.401Z,28.20
2023-02-09T16:12:26.152Z,29.50
2023-02-09T16:14:59.237Z,27.70
2023-02-09T16:17:29.168Z,29.50
2023-02-09T16:19:59.860Z,26.80
2023-02-09T16:22:29.247Z,34.50
2023-02-09T16:24:58.762Z,28.90
2023-02-09T16:27:29.853Z,31.70
2023-02-09T16:29:59.909Z,32.70
2023-02-09T16:32:32.702Z,26.70
2023-02-09T16:44:49.015Z,29.70
2023-02-09T16:47:40.472Z,31.10
2023-02-09T16:50:33.754Z,32.90
2023-02-09T16:53:14.345Z,33.50
2023-02-09T16:55:49.248Z,35.20
2023-02-09T16:58:22.065Z,33.50
2023-02-09T17:00:52.510Z,32.00
2023-02-09T17:05:58.026Z,30.40
2023-02-09T17:08:32.371Z,32.40
2023-02-09T17:11:04.368Z,32.90
2023-02-09T17:13:33.118Z,30.50
2023-02-09T17:16:05.603Z,29.30
2023-02-09T17:18:39.374Z,28.40
2023-02-09T17:21:21.225Z,32.70
2023-02-09T17:23:51.219Z,32.90
2023-02-09T17:26:21.012Z,27.70
2023-02-09T17:28:49.774Z,29.90
2023-02-09T17:31:25.900Z,30.40
2023-02-09T17:33:57.583Z,29.60
2023-02-09T17:36:28.630Z,32.10
2023-02-09T17:39:03.132Z,33.00
2023-02-09T17:41:48.706Z,36.70
2023-02-09T17:44:45.137Z,30.80
2023-02-09T17:47:30.648Z,30.90
2023-02-09T17:50:08.470Z,31.20
2023-02-09T17:52:39.488Z,30.80
2023-02-09T17:55:16.635Z,30.40
2023-02-09T17:57:45.583Z,32.30
2023-02-09T18:00:15.852Z,31.90
2023-02-09T18:02:45.720Z,30.60
2023-02-09T18:05:21.085Z,34.90
2023-02-09T18:07:50.073Z,29.20
2023-02-09T18:10:21.560Z,34.70
2023-02-09T18:12:53.370Z,30.60
2023-02-09T18:15:26.068Z,33.40
2023-02-09T18:17:55.056Z,31.00
2023-02-09T18:20:28.211Z,41.40
2023-02-09T18:22:59.188Z,30.80
2023-02-09T18:25:37.821Z,33.40
2023-02-09T18:28:12.399Z,34.80
2023-02-09T18:30:43.737Z,37.30
2023-02-09T18:33:19.544Z,36.30
2023-02-09T18:36:01.470Z,33.30
2023-02-09T18:38:31.920Z,41.00
2023-02-09T18:41:03.943Z,38.90
2023-02-09T18:43:32.499Z,35.20
2023-02-09T18:46:02.248Z,35.30
2023-02-09T18:48:34.032Z,38.30
2023-02-09T18:51:05.549Z,34.90
2023-02-09T18:53:38.916Z,40.10
2023-02-09T18:56:59.405Z,36.30
2023-02-09T18:59:32.502Z,40.80
2023-02-09T19:02:04.085Z,36.30
2023-02-09T19:04:41.190Z,40.40
2023-02-09T19:07:45.719Z,38.40
2023-02-09T19:10:23.435Z,38.70
2023-02-09T19:12:54.422Z,36.00
2023-02-09T19:15:30.226Z,40.10
2023-02-09T19:18:00.315Z,38.10
2023-02-09T19:20:31.361Z,35.20
2023-02-09T19:23:00.413Z,36.40
2023-02-09T19:25:31.355Z,36.80
2023-02-09T19:28:00.558Z,37.50
2023-02-09T19:30:29.078Z,41.00
2023-02-09T19:33:02.395Z,37.90
2023-02-09T19:35:32.362Z,38.00
2023-02-09T19:38:00.912Z,38.10
2023-02-09T19:40:36.560Z,36.90
2023-02-09T19:43:08.786Z,39.80
2023-02-09T19:45:37.964Z,38.10
2023-02-09T19:48:09.725Z,40.10
2023-02-09T19:50:40.694Z,38.70
2023-02-09T19:53:09.807Z,37.90
2023-02-09T19:55:39.234Z,40.20
2023-02-09T19:58:09.145Z,41.00
2023-02-09T20:00:38.683Z,37.60
2023-02-09T20:03:14.175Z,40.20
2023-02-09T20:05:44.993Z,37.60
2023-02-09T20:08:19.309Z,42.30
2023-02-09T20:10:48.870Z,36.20
2023-02-09T20:15:50.742Z,37.00
2023-02-09T20:18:25.677Z,42.30
2023-02-09T20:20:56.754Z,37.80
2023-02-09T20:23:25.350Z,40.50
2023-02-09T20:25:58.276Z,38.90
2023-02-09T20:28:27.632Z,41.90
2023-02-09T20:31:02.123Z,38.60
2023-02-09T20:33:32.504Z,36.60
2023-02-09T20:36:09.764Z,48.10
2023-02-09T20:38:40.062Z,43.40
2023-02-09T20:41:11.924Z,40.30
2023-02-09T20:44:00.191Z,41.00
2023-02-09T20:46:52.351Z,42.00
2023-02-09T20:49:38.571Z,42.00
2023-02-09T20:52:21.963Z,44.70
2023-02-09T20:54:52.308Z,43.20
2023-02-09T20:57:36.798Z,49.00
2023-02-09T21:00:10.712Z,43.30
2023-02-09T21:02:42.695Z,42.90
2023-02-09T21:05:15.473Z,41.10
2023-02-09T21:07:47.061Z,40.30
2023-02-09T21:10:20.309Z,40.80
2023-02-09T21:12:49.502Z,41.00
2023-02-09T21:15:18.563Z,45.10
2023-02-09T21:17:50.567Z,42.30
2023-02-09T21:20:22.758Z,40.40
2023-02-09T21:22:54.698Z,42.90
2023-02-09T21:25:29.269Z,41.50
2023-02-09T21:28:03.953Z,38.60
2023-02-09T21:30:39.460Z,38.30
2023-02-09T21:33:12.047Z,42.80
2023-02-09T21:35:42.201Z,40.40
2023-02-09T21:38:10.786Z,46.80
2023-02-09T21:40:42.630Z,40.40
2023-02-09T21:43:27.075Z,47.50
2023-02-09T21:45:55.435Z,42.00
2023-02-09T21:48:24.652Z,41.00
2023-02-09T21:50:53.729Z,38.30
2023-02-09T21:53:23.468Z,38.30
2023-02-09T21:55:52.934Z,44.20
2023-02-09T21:58:21.682Z,41.20
2023-02-09T22:00:58.250Z,36.50
2023-02-09T22:03:26.720Z,43.30
2023-02-09T22:06:02.708Z,34.10
2023-02-09T22:08:31.802Z,34.90
2023-02-09T22:11:02.601Z,37.00
2023-02-09T22:13:31.189Z,34.20
2023-02-09T22:15:59.544Z,34.90
2023-02-09T22:18:27.811Z,35.30
2023-02-09T22:20:57.587Z,32.40
2023-02-09T22:23:27.340Z,40.30
2023-02-09T22:26:02.681Z,40.00
2023-02-09T22:28:32.626Z,37.70
2023-02-09T22:31:13.301Z,34.30
2023-02-09T22:33:42.622Z,31.80
2023-02-09T22:36:19.060Z,38.30
2023-02-09T22:38:47.513Z,35.90
2023-02-09T22:41:22.064Z,34.00
2023-02-09T22:43:59.659Z,32.00
2023-02-09T22:46:31.551Z,35.90
2023-02-09T22:49:02.250Z,37.30
2023-02-09T22:54:00.523Z,32.70
2023-02-09T22:56:29.973Z,34.30
2023-02-09T22:58:59.891Z,29.20
2023-02-09T23:01:29.520Z,35.90
2023-02-09T23:03:58.795Z,33.80
2023-02-09T23:06:30.229Z,36.90
2023-02-09T23:09:04.944Z,30.50
2023-02-09T23:11:34.072Z,28.30
2023-02-09T23:14:10.937Z,37.10
2023-02-09T23:16:41.766Z,31.00
2023-02-09T23:19:14.350Z,31.90
2023-02-09T23:21:45.526Z,35.60
2023-02-09T23:24:17.041Z,31.70
2023-02-09T23:26:45.483Z,27.30
2023-02-09T23:29:15.921Z,31.50
2023-02-09T23:31:45.616Z,31.10
2023-02-09T23:34:17.998Z,30.80
2023-02-09T23:36:47.199Z,27.20
2023-02-09T23:39:18.772Z,30.10
2023-02-09T23:41:49.192Z,27.70
2023-02-09T23:44:19.724Z,30.40
2023-02-09T23:46:48.373Z,32.10
2023-02-09T23:49:16.839Z,28.20
2023-02-09T23:51:47.010Z,30.60
2023-02-09T23:54:15.437Z,33.60
2023-02-09T23:56:45.538Z,34.20
2023-02-09T23:59:16.346Z,27.20
